Time;durP1;ratioP1;P1;durP2;ratioP2;P2;SDS_P1;SDS_P2;PMS_P1;PMS_P2;Temp;Humidity;BMP_temperature;BMP_pressure;BME280_temperature;BME280_humidity;BME280_pressure;Samples;Min_cycle;Max_cycle;Signal;HPM_P1;HPM_P2
2023/11/03 00:02:23;;;;;;;1.90;1.20;;;;;;;14.16;67.68;94080.89;106966;1279;24363;-87
2023/11/03 00:04:51;;;;;;;3.00;1.30;;;;;;;14.16;67.47;94102.72;107008;1275;22629;-87
2023/11/03 00:07:19;;;;;;;2.40;1.50;;;;;;;14.17;67.62;94099.59;106936;1283;137221;-87
2023/11/03 00:09:45;;;;;;;2.80;1.50;;;;;;;14.18;67.36;94084.80;106913;1275;22676;-86
2023/11/03 00:12:13;;;;;;;1.50;1.20;;;;;;;14.17;67.60;94083.50;106957;1274;137394;-88
2023/11/03 00:14:40;;;;;;;1.20;0.80;;;;;;;14.19;67.47;94082.92;106984;1278;23403;-89
2023/11/03 00:17:06;;;;;;;4.80;2.80;;;;;;;14.17;67.80;94078.44;107018;1278;22657;-90
2023/11/03 00:19:33;;;;;;;1.50;1.30;;;;;;;14.17;67.62;94080.98;106831;1276;137729;-89
2023/11/03 00:22:00;;;;;;;3.40;1.60;;;;;;;14.18;67.75;94082.61;107089;1275;25422;-89
2023/11/03 00:24:26;;;;;;;2.10;1.20;;;;;;;14.18;67.95;94089.92;106883;1278;137172;-88
2023/11/03 00:26:54;;;;;;;2.70;1.40;;;;;;;14.17;67.97;94079.75;107008;1278;22547;-87
2023/11/03 00:29:22;;;;;;;2.70;1.30;;;;;;;14.17;68.04;94062.98;107020;1281;22589;-88
2023/11/03 00:31:49;;;;;;;1.80;1.40;;;;;;;14.17;68.05;94044.42;106890;1282;137375;-89
2023/11/03 00:34:16;;;;;;;1.40;1.00;;;;;;;14.16;68.16;94023.13;107006;1265;24505;-90
2023/11/03 00:36:45;;;;;;;1.70;1.10;;;;;;;14.16;68.19;94022.34;106799;1280;137331;-88
2023/11/03 00:39:12;;;;;;;1.60;1.10;;;;;;;14.16;68.19;94023.20;107000;1275;22596;-87
2023/11/03 00:41:40;;;;;;;1.70;1.40;;;;;;;14.15;68.69;94009.48;106826;1275;137999;-89
2023/11/03 00:44:07;;;;;;;1.70;1.00;;;;;;;14.14;68.61;94004.66;109902;1275;22277;-89
2023/11/03 00:46:38;;;;;;;1.70;1.10;;;;;;;14.15;68.43;94016.21;107054;1281;23047;-89
2023/11/03 00:49:07;;;;;;;1.70;1.30;;;;;;;14.17;68.45;94007.61;106928;1277;137338;-88
2023/11/03 00:51:34;;;;;;;3.20;1.40;;;;;;;14.20;68.50;93998.15;106920;1269;25471;-88
2023/11/03 00:54:03;;;;;;;1.60;1.00;;;;;;;14.22;68.48;94030.32;106874;1275;137903;-88
2023/11/03 00:56:30;;;;;;;2.40;1.20;;;;;;;14.21;68.74;94021.75;106929;1277;24177;-89
2023/11/03 00:58:57;;;;;;;1.60;1.10;;;;;;;14.20;68.74;93997.21;106846;1281;23348;-90
2023/11/03 01:01:23;;;;;;;3.00;1.40;;;;;;;14.21;68.87;93999.55;106867;1279;137634;-89
2023/11/03 01:03:52;;;;;;;2.20;1.00;;;;;;;14.21;68.87;94021.39;106929;1281;25600;-88
2023/11/03 01:06:19;;;;;;;2.50;0.90;;;;;;;14.22;69.00;94025.83;107353;1275;137877;-89
2023/11/03 01:08:46;;;;;;;1.50;0.90;;;;;;;14.21;69.09;94028.39;106963;1276;23000;-89
2023/11/03 01:11:12;;;;;;;6.20;1.60;;;;;;;14.22;68.94;94044.22;107100;1275;24214;-88
2023/11/03 01:13:39;;;;;;;3.00;0.80;;;;;;;14.21;69.15;94047.35;106926;1277;137402;-88
2023/11/03 01:16:10;;;;;;;1.90;1.20;;;;;;;14.21;69.21;94078.80;106943;1283;24201;-88
2023/11/03 01:18:39;;;;;;;1.40;1.00;;;;;;;14.20;69.19;94080.79;106880;1281;137164;-89
2023/11/03 01:21:12;;;;;;;1.70;0.80;;;;;;;14.21;69.24;94077.55;107058;1283;24352;-89
2023/11/03 01:23:42;;;;;;;1.10;0.80;;;;;;;14.19;69.52;94062.66;108334;1276;137996;-88
2023/11/03 01:26:10;;;;;;;1.60;0.90;;;;;;;14.16;69.40;94065.59;106963;1278;25191;-89
2023/11/03 01:28:36;;;;;;;1.60;1.10;;;;;;;14.16;69.33;94056.96;107211;1280;22584;-89
2023/11/03 01:31:10;;;;;;;2.10;0.80;;;;;;;14.16;69.41;94043.95;106788;1280;137142;-88
2023/11/03 01:33:41;;;;;;;3.70;0.90;;;;;;;14.14;69.51;94046.23;106958;1277;22551;-89
2023/11/03 01:36:08;;;;;;;1.20;0.70;;;;;;;14.12;69.18;94060.65;106779;1278;137999;-89
2023/11/03 01:38:35;;;;;;;1.20;0.90;;;;;;;14.12;69.28;94063.36;106942;1275;23552;-89
2023/11/03 01:41:02;;;;;;;1.40;0.60;;;;;;;14.12;69.36;94045.09;106979;1277;22675;-89
2023/11/03 01:43:30;;;;;;;1.20;1.00;;;;;;;14.11;69.44;94034.95;106695;1281;137927;-88
2023/11/03 01:45:58;;;;;;;1.10;0.60;;;;;;;14.09;69.48;94038.92;106995;1276;25250;-86
2023/11/03 01:48:26;;;;;;;1.40;0.90;;;;;;;14.08;69.42;94033.96;106898;1281;137750;-87
2023/11/03 01:50:54;;;;;;;1.90;0.90;;;;;;;14.08;69.49;94032.14;106949;1279;22569;-87
2023/11/03 01:53:22;;;;;;;1.20;0.70;;;;;;;14.08;69.41;94032.87;108469;1279;22600;-90
2023/11/03 01:55:58;;;;;;;1.30;0.60;;;;;;;14.08;69.58;94045.77;108111;1281;392756;-90
2023/11/03 01:58:29;;;;;;;1.20;0.70;;;;;;;14.07;69.48;94043.31;108711;1275;22603;-90
2023/11/03 02:00:56;;;;;;;1.10;0.60;;;;;;;14.08;69.39;94050.67;108548;1282;137251;-91
2023/11/03 02:03:24;;;;;;;1.40;0.80;;;;;;;14.09;69.33;94038.45;108741;1275;22574;-91
2023/11/03 02:05:51;;;;;;;0.90;0.60;;;;;;;14.10;69.20;94036.58;108036;1278;137708;-90
2023/11/03 02:08:19;;;;;;;1.10;0.50;;;;;;;14.11;69.22;94039.18;107662;1283;22576;-91
2023/11/03 02:10:46;;;;;;;1.00;0.40;;;;;;;14.10;69.17;94030.10;107680;1280;26001;-91
2023/11/03 02:13:13;;;;;;;0.40;0.40;;;;;;;14.11;69.08;94042.27;107746;1283;137466;-91
2023/11/03 02:15:40;;;;;;;0.80;0.60;;;;;;;14.12;69.13;94046.02;107879;1278;23490;-91
2023/11/03 02:18:10;;;;;;;1.10;0.60;;;;;;;14.11;69.09;94040.28;107819;1275;137282;-91
2023/11/03 02:20:37;;;;;;;2.00;0.50;;;;;;;14.12;69.13;94039.50;107693;1277;24289;-90
2023/11/03 02:23:04;;;;;;;0.80;0.50;;;;;;;14.12;69.08;94050.36;107455;1275;22540;-89
2023/11/03 02:25:31;;;;;;;1.10;0.60;;;;;;;14.15;68.95;94046.65;107404;1275;137342;-90
2023/11/03 02:27:58;;;;;;;0.80;0.50;;;;;;;14.18;68.95;94050.02;107838;1260;22550;-91
2023/11/03 02:30:25;;;;;;;0.90;0.70;;;;;;;14.19;68.93;94048.61;107934;1277;137638;-90
2023/11/03 02:32:52;;;;;;;1.30;0.50;;;;;;;14.20;69.09;94037.42;107897;1277;22614;-90
2023/11/03 02:35:19;;;;;;;1.20;0.70;;;;;;;14.22;69.12;94054.77;107668;1281;22485;-90
2023/11/03 02:37:46;;;;;;;1.00;0.60;;;;;;;14.22;69.12;94056.86;108203;1276;136129;-91
2023/11/03 02:40:14;;;;;;;1.00;0.50;;;;;;;14.23;69.00;94052.94;108664;1280;22687;-91
2023/11/03 02:42:48;;;;;;;1.70;0.80;;;;;;;14.25;68.95;94036.27;108665;1276;138042;-91
2023/11/03 02:45:15;;;;;;;1.30;0.80;;;;;;;14.24;69.09;94032.35;108439;1275;22527;-91
2023/11/03 02:47:44;;;;;;;2.00;1.20;;;;;;;14.27;69.03;94031.05;108717;1282;137372;-92
2023/11/03 02:50:16;;;;;;;1.00;0.70;;;;;;;14.27;69.05;94022.52;109029;1275;22558;-92
2023/11/03 02:52:45;;;;;;;0.80;0.50;;;;;;;14.29;69.16;94016.05;107597;1283;22534;-91
2023/11/03 02:55:11;;;;;;;2.10;0.70;;;;;;;14.31;69.40;94019.70;107423;1281;137115;-90
2023/11/03 02:57:38;;;;;;;0.90;0.50;;;;;;;14.31;69.43;94008.89;107448;1283;24412;-90
2023/11/03 03:00:09;;;;;;;1.20;0.60;;;;;;;14.31;69.49;94008.36;107953;1275;136940;-91
2023/11/03 03:02:36;;;;;;;2.40;0.80;;;;;;;14.31;69.45;94000.70;107933;1279;24188;-90
2023/11/03 03:05:03;;;;;;;1.10;0.70;;;;;;;14.31;69.64;94012.39;107691;1275;22578;-89
2023/11/03 03:07:31;;;;;;;0.90;0.60;;;;;;;14.28;69.69;94002.41;107535;1276;137236;-90
2023/11/03 03:09:58;;;;;;;1.20;0.70;;;;;;;14.29;69.96;94009.83;107389;1275;22649;-90
2023/11/03 03:12:24;;;;;;;1.20;0.80;;;;;;;14.28;69.96;94001.16;107409;1283;137321;-91
2023/11/03 03:14:52;;;;;;;2.00;1.00;;;;;;;14.31;70.16;93993.90;107479;1280;22545;-91
2023/11/03 03:17:18;;;;;;;1.10;0.50;;;;;;;14.29;70.51;93982.71;107419;1275;22544;-91
2023/11/03 03:19:45;;;;;;;1.10;0.70;;;;;;;14.26;70.92;93985.34;107365;1278;137227;-90
2023/11/03 03:22:12;;;;;;;1.10;0.60;;;;;;;14.23;71.22;93985.45;107636;1283;24383;-90
2023/11/03 03:24:38;;;;;;;2.00;0.90;;;;;;;14.20;71.60;93977.57;107391;1275;138417;-91
2023/11/03 03:27:05;;;;;;;1.70;0.90;;;;;;;14.19;71.66;93985.25;107697;1282;22613;-91
2023/11/03 03:29:32;;;;;;;2.70;0.70;;;;;;;14.19;71.95;93979.19;107834;1278;22544;-91
2023/11/03 03:31:58;;;;;;;1.90;0.70;;;;;;;14.17;72.31;93968.17;107586;1274;137859;-89
2023/11/03 03:34:25;;;;;;;1.30;0.90;;;;;;;14.15;72.46;93969.83;107620;1283;22488;-90
2023/11/03 03:36:52;;;;;;;1.00;0.60;;;;;;;14.14;72.62;93956.91;107581;1275;137918;-90
2023/11/03 03:39:18;;;;;;;3.10;0.90;;;;;;;14.12;72.98;93954.27;107759;1283;22669;-89
2023/11/03 03:41:49;;;;;;;1.90;0.70;;;;;;;14.09;73.49;93941.42;107602;1275;137488;-89
2023/11/03 03:44:17;;;;;;;0.90;0.60;;;;;;;14.08;73.18;93925.29;107877;1281;22589;-89
2023/11/03 03:46:44;;;;;;;1.20;0.60;;;;;;;14.06;73.15;93915.52;107744;1276;22553;-91
2023/11/03 03:49:10;;;;;;;0.80;0.60;;;;;;;14.05;73.19;93907.02;107675;1276;138739;-90
2023/11/03 03:51:37;;;;;;;1.80;0.80;;;;;;;14.06;73.19;93910.10;107766;1277;22608;-90
2023/11/03 03:54:04;;;;;;;1.20;0.70;;;;;;;14.08;73.07;93900.38;107590;1282;138043;-89
2023/11/03 03:56:31;;;;;;;1.10;0.70;;;;;;;14.09;73.13;93873.27;107706;1282;23918;-90
2023/11/03 03:58:57;;;;;;;1.10;0.80;;;;;;;14.07;73.14;93882.05;107809;1281;22585;-91
2023/11/03 04:01:24;;;;;;;1.50;0.60;;;;;;;14.07;72.88;93868.79;107908;1277;137841;-90
2023/11/03 04:03:51;;;;;;;1.10;0.70;;;;;;;14.11;72.88;93875.45;107843;1268;22540;-91
2023/11/03 04:06:18;;;;;;;1.40;0.80;;;;;;;14.12;72.94;93852.84;107937;1275;139010;-92
2023/11/03 04:08:45;;;;;;;0.60;0.60;;;;;;;14.14;72.77;93867.41;108862;1282;23308;-91
2023/11/03 04:11:12;;;;;;;1.40;0.80;;;;;;;14.16;72.85;93871.70;108699;1281;25354;-91
2023/11/03 04:13:41;;;;;;;0.90;0.70;;;;;;;14.16;72.65;93861.10;108373;1281;138830;-90
2023/11/03 04:16:09;;;;;;;1.40;0.80;;;;;;;14.16;72.85;93858.96;108970;1279;22604;-92
2023/11/03 04:18:38;;;;;;;1.90;0.80;;;;;;;14.18;72.63;93873.48;108300;1278;139133;-91
2023/11/03 04:21:05;;;;;;;1.10;0.90;;;;;;;14.21;72.60;93859.31;108047;1279;22561;-91
2023/11/03 04:23:32;;;;;;;1.60;0.90;;;;;;;14.22;72.63;93856.70;108050;1278;22500;-91
2023/11/03 04:25:58;;;;;;;1.20;0.80;;;;;;;14.22;72.58;93851.84;107914;1276;138118;-91
2023/11/03 04:28:25;;;;;;;1.80;0.80;;;;;;;14.23;72.35;93852.57;107658;1282;22656;-90
2023/11/03 04:30:52;;;;;;;2.60;1.10;;;;;;;14.23;72.78;93849.38;108243;1277;138486;-91
2023/11/03 04:33:19;;;;;;;1.00;0.80;;;;;;;14.20;72.65;93879.27;108315;1283;22578;-92
2023/11/03 04:35:46;;;;;;;1.60;1.00;;;;;;;14.21;72.58;93889.02;108243;1276;138396;-91
2023/11/03 04:38:16;;;;;;;1.40;1.10;;;;;;;14.21;72.65;93880.00;108484;1276;23981;-91
2023/11/03 04:40:46;;;;;;;1.50;1.00;;;;;;;14.22;72.94;93867.87;108570;1283;22677;-91
2023/11/03 04:43:13;;;;;;;1.10;0.90;;;;;;;14.22;72.86;93874.52;108302;1279;137021;-91
2023/11/03 04:45:39;;;;;;;1.30;1.10;;;;;;;14.21;73.04;93871.17;108290;1276;22504;-92
2023/11/03 04:48:06;;;;;;;1.80;1.50;;;;;;;14.21;72.93;93872.05;108076;1281;138368;-91
2023/11/03 04:50:34;;;;;;;2.00;1.10;;;;;;;14.22;73.07;93860.56;108135;1282;26037;-91
2023/11/03 04:53:01;;;;;;;2.20;1.20;;;;;;;14.22;73.15;93843.42;108164;1278;22616;-91
2023/11/03 04:55:28;;;;;;;0.80;0.80;;;;;;;14.19;73.35;93849.14;107931;1283;137864;-91
2023/11/03 04:57:56;;;;;;;1.30;1.20;;;;;;;14.14;73.71;93848.70;107967;1282;22603;-91
2023/11/03 05:00:23;;;;;;;2.30;1.50;;;;;;;14.14;74.52;93851.69;107931;1281;137817;-90
2023/11/03 05:02:52;;;;;;;3.30;1.60;;;;;;;14.09;76.69;93846.64;108076;1279;22991;-91
2023/11/03 05:05:20;;;;;;;1.80;1.20;;;;;;;14.00;79.11;93838.83;108349;1282;25377;-91
2023/11/03 05:07:47;;;;;;;2.00;1.30;;;;;;;13.85;78.93;93820.69;108157;1281;137778;-91
2023/11/03 05:10:14;;;;;;;1.70;1.30;;;;;;;13.74;79.85;93817.57;108185;1281;23794;-90
2023/11/03 05:12:41;;;;;;;1.30;1.20;;;;;;;13.65;80.30;93807.35;108053;1283;138043;-91
2023/11/03 05:15:11;;;;;;;2.30;1.30;;;;;;;13.56;81.20;93796.98;107918;1274;25413;-90
2023/11/03 05:17:38;;;;;;;2.30;1.30;;;;;;;13.50;80.59;93793.80;107893;1281;138232;-91
2023/11/03 05:20:08;;;;;;;1.40;1.30;;;;;;;13.47;82.72;93761.20;107894;1277;25668;-91
2023/11/03 05:22:49;;;;;;;3.00;1.50;;;;;;;13.40;81.31;93753.39;107888;1278;22591;-90
2023/11/03 05:25:16;;;;;;;2.70;1.50;;;;;;;13.39;81.68;93779.05;108436;1283;138284;-91
2023/11/03 05:27:43;;;;;;;1.70;1.20;;;;;;;13.40;81.35;93773.79;108297;1279;22517;-89
2023/11/03 05:30:12;;;;;;;1.40;1.20;;;;;;;13.43;80.95;93769.60;107844;1280;137765;-91
2023/11/03 05:32:39;;;;;;;1.40;1.30;;;;;;;13.44;81.29;93787.07;107654;1276;23807;-91
2023/11/03 05:35:06;;;;;;;1.70;1.30;;;;;;;13.43;81.37;93809.30;107576;1283;22635;-92
2023/11/03 05:37:33;;;;;;;1.80;1.30;;;;;;;13.42;81.25;93802.41;107282;1283;138574;-91
2023/11/03 05:40:00;;;;;;;1.50;1.40;;;;;;;13.43;80.79;93816.04;107635;1277;22565;-90
2023/11/03 05:42:26;;;;;;;1.60;1.10;;;;;;;13.45;80.89;93806.79;107253;1279;137917;-90
2023/11/03 05:44:53;;;;;;;2.10;1.40;;;;;;;13.47;80.94;93832.71;107942;1276;22627;-92
2023/11/03 05:47:20;;;;;;;1.40;1.20;;;;;;;13.49;80.46;93809.86;107846;1279;25248;-92
2023/11/03 05:49:47;;;;;;;1.40;1.10;;;;;;;13.52;80.11;93821.63;108062;1283;137957;-93
2023/11/03 05:52:14;;;;;;;1.60;1.20;;;;;;;13.54;80.85;93827.20;108034;1277;24204;-92
2023/11/03 05:54:40;;;;;;;1.50;1.10;;;;;;;13.52;80.76;93829.76;107895;1279;138072;-91
2023/11/03 05:57:07;;;;;;;1.30;1.20;;;;;;;13.53;79.81;93824.49;108390;1279;24200;-91
2023/11/03 05:59:35;;;;;;;1.40;0.90;;;;;;;13.56;79.39;93821.41;108252;1282;138953;-89
2023/11/03 06:02:02;;;;;;;1.50;1.20;;;;;;;13.59;79.75;93838.52;108056;1276;22725;-91
2023/11/03 06:04:29;;;;;;;2.00;1.50;;;;;;;13.59;79.55;93827.34;107975;1281;25461;-91
2023/11/03 06:06:56;;;;;;;3.40;1.60;;;;;;;13.58;79.65;93827.24;108069;1277;138377;-90
2023/11/03 06:09:26;;;;;;;1.80;1.10;;;;;;;13.57;79.30;93854.90;107988;1278;22776;-92
2023/11/03 06:11:53;;;;;;;3.60;1.30;;;;;;;13.57;79.17;93826.83;107867;1281;138295;-90
2023/11/03 06:14:19;;;;;;;1.90;1.20;;;;;;;13.59;78.92;93830.64;108007;1284;23002;-90
2023/11/03 06:16:46;;;;;;;1.90;1.30;;;;;;;13.59;79.11;93804.91;107757;1277;22782;-90
2023/11/03 06:19:12;;;;;;;1.70;1.10;;;;;;;13.57;79.63;93801.94;107190;1280;138905;-90
2023/11/03 06:21:39;;;;;;;1.00;0.90;;;;;;;13.54;79.52;93791.52;107154;1284;25383;-89
2023/11/03 06:24:06;;;;;;;1.40;1.30;;;;;;;13.54;79.14;93809.57;107131;1276;138156;-91
2023/11/03 06:26:32;;;;;;;2.20;1.40;;;;;;;13.55;79.08;93820.42;107521;1277;22576;-90
2023/11/03 06:29:40;;;;;;;2.30;1.10;;;;;;;13.56;79.06;93843.73;107520;1263;22653;-90
2023/11/03 06:33:27;;;;;;;1.50;1.40;;;;;;;13.55;78.76;93839.14;107091;1283;24221;-90
2023/11/03 06:37:14;;;;;;;1.80;1.20;;;;;;;13.57;78.48;93824.11;107311;1280;138284;-90
2023/11/03 06:41:03;;;;;;;1.60;1.40;;;;;;;13.59;78.26;93819.20;107401;1280;22500;-90
2023/11/03 06:44:30;;;;;;;1.50;0.90;;;;;;;13.64;77.71;93806.72;107294;1280;138067;-89
2023/11/03 06:46:59;;;;;;;2.20;1.40;;;;;;;13.68;77.72;93796.09;107370;1279;22684;-90
2023/11/03 06:49:25;;;;;;;1.50;1.40;;;;;;;13.72;78.00;93772.44;107112;1280;137980;-90
2023/11/03 06:51:52;;;;;;;1.50;1.30;;;;;;;13.74;77.43;93772.06;107051;1286;22514;-90
2023/11/03 06:54:19;;;;;;;1.50;1.20;;;;;;;13.76;77.20;93753.63;107086;1279;138198;-89
2023/11/03 06:56:45;;;;;;;1.30;1.20;;;;;;;13.78;77.18;93752.94;107090;1283;22550;-90
2023/11/03 06:59:13;;;;;;;1.70;1.30;;;;;;;13.79;77.29;93753.61;107063;1280;22559;-89
2023/11/03 07:01:39;;;;;;;3.70;1.90;;;;;;;13.81;77.07;93740.04;106966;1283;138031;-90
2023/11/03 07:04:08;;;;;;;1.40;1.30;;;;;;;13.82;77.46;93746.25;107126;1283;22605;-90
2023/11/03 07:06:35;;;;;;;2.00;1.30;;;;;;;13.85;77.27;93734.26;106935;1280;137508;-90
2023/11/03 07:09:02;;;;;;;1.40;1.10;;;;;;;13.84;78.08;93731.95;107040;1280;23162;-91
2023/11/03 07:11:30;;;;;;;1.50;1.00;;;;;;;13.85;77.21;93741.41;107258;1285;25433;-90
2023/11/03 07:13:57;;;;;;;2.10;1.20;;;;;;;13.86;77.25;93751.58;106956;1280;137853;-90
2023/11/03 07:16:23;;;;;;;1.40;1.10;;;;;;;13.87;77.27;93749.12;107060;1281;22621;-91
2023/11/03 07:18:50;;;;;;;2.30;1.20;;;;;;;13.88;77.82;93745.09;107085;1280;138903;-90
2023/11/03 07:21:17;;;;;;;1.50;1.20;;;;;;;13.89;77.65;93757.09;107085;1283;25445;-90
2023/11/03 07:23:47;;;;;;;1.40;1.10;;;;;;;13.91;76.93;93763.98;107075;1283;138125;-88
2023/11/03 07:26:15;;;;;;;1.80;1.40;;;;;;;13.93;76.77;93756.20;107603;1280;22613;-90
2023/11/03 07:28:45;;;;;;;1.90;1.30;;;;;;;13.94;76.82;93761.98;107259;1286;22495;-91
2023/11/03 07:31:12;;;;;;;1.60;1.40;;;;;;;13.97;77.01;93763.85;107219;1279;138304;-90
2023/11/03 07:33:41;;;;;;;1.40;1.20;;;;;;;13.97;76.81;93760.02;107251;1281;22585;-91
2023/11/03 07:36:10;;;;;;;1.60;1.50;;;;;;;13.99;76.68;93748.66;107245;1286;138302;-92
2023/11/03 07:38:36;;;;;;;1.50;1.20;;;;;;;14.01;76.81;93743.33;107077;1286;22571;-92
2023/11/03 07:41:07;;;;;;;2.80;1.60;;;;;;;14.04;77.23;93747.97;107237;1285;23731;-92
2023/11/03 07:43:37;;;;;;;4.20;1.20;;;;;;;14.06;76.79;93744.41;107194;1284;137913;-92
2023/11/03 07:46:04;;;;;;;1.60;1.30;;;;;;;14.09;77.31;93751.29;107310;1284;22505;-91
2023/11/03 07:48:31;;;;;;;2.10;1.40;;;;;;;14.12;77.37;93744.79;107342;1280;138629;-89
2023/11/03 07:51:02;;;;;;;2.00;1.20;;;;;;;14.13;77.28;93746.30;107429;1283;22630;-92
2023/11/03 07:53:28;;;;;;;3.10;1.70;;;;;;;14.15;76.68;93752.25;107379;1280;22585;-92
2023/11/03 07:55:55;;;;;;;1.80;1.50;;;;;;;14.19;76.73;93758.26;107199;1279;138717;-92
2023/11/03 07:58:22;;;;;;;2.40;1.60;;;;;;;14.19;76.67;93764.89;107197;1280;22625;-89
2023/11/03 08:00:49;;;;;;;1.80;1.60;;;;;;;14.18;76.96;93772.47;107206;1268;137970;-89
2023/11/03 08:03:16;;;;;;;2.30;1.40;;;;;;;14.19;77.30;93769.07;107234;1283;22623;-90
2023/11/03 08:05:44;;;;;;;2.70;1.50;;;;;;;14.19;77.24;93745.30;107280;1285;138099;-88
2023/11/03 08:08:13;;;;;;;1.70;1.30;;;;;;;14.21;77.86;93736.10;107311;1281;25495;-90
2023/11/03 08:10:40;;;;;;;1.90;1.50;;;;;;;14.24;77.69;93740.88;107397;1286;23620;-90
2023/11/03 08:13:07;;;;;;;1.60;1.20;;;;;;;14.30;78.11;93754.48;107059;1286;138191;-89
2023/11/03 08:15:35;;;;;;;2.00;1.70;;;;;;;14.34;77.38;93749.46;107006;1283;22799;-88
2023/11/03 08:18:09;;;;;;;1.40;1.30;;;;;;;14.38;77.38;93760.10;108499;1282;138283;-92
2023/11/03 08:20:43;;;;;;;1.90;1.50;;;;;;;14.44;77.20;93766.83;109383;1286;22567;-91
2023/11/03 08:23:16;;;;;;;1.60;1.20;;;;;;;14.50;77.14;93767.97;109542;1286;23761;-92
2023/11/03 08:25:47;;;;;;;1.90;1.10;;;;;;;14.54;76.60;93780.22;109244;1269;138350;-94
2023/11/03 08:28:16;;;;;;;1.70;1.20;;;;;;;14.59;76.19;93773.40;109383;1286;22546;-93
2023/11/03 08:30:48;;;;;;;2.40;1.10;;;;;;;14.64;76.50;93763.80;109024;1281;138616;-92
2023/11/03 08:33:15;;;;;;;1.70;1.40;;;;;;;14.69;77.14;93753.22;108321;1285;24438;-87
2023/11/03 08:35:42;;;;;;;2.50;1.20;;;;;;;14.70;76.63;93763.20;107594;1286;138022;-90
2023/11/03 08:38:12;;;;;;;1.50;1.20;;;;;;;14.73;76.86;93765.43;107666;1286;22540;-91
2023/11/03 08:40:42;;;;;;;1.30;1.20;;;;;;;14.74;76.90;93764.16;107854;1286;25417;-89
2023/11/03 08:43:11;;;;;;;1.60;1.30;;;;;;;14.76;76.58;93761.17;107023;1279;138048;-90
2023/11/03 08:45:40;;;;;;;1.40;0.90;;;;;;;14.77;76.24;93750.77;106998;1286;24163;-90
2023/11/03 08:48:09;;;;;;;2.00;1.30;;;;;;;14.77;76.98;93735.45;107151;1281;138494;-90
2023/11/03 08:50:37;;;;;;;2.10;1.30;;;;;;;14.79;77.02;93725.27;107036;1283;26117;-92
2023/11/03 08:53:06;;;;;;;1.50;1.20;;;;;;;14.81;76.78;93721.63;106981;1265;24182;-90
2023/11/03 08:55:35;;;;;;;1.70;1.40;;;;;;;14.83;77.01;93712.31;107265;1278;137904;-90
2023/11/03 08:58:04;;;;;;;2.20;1.40;;;;;;;14.84;76.62;93716.54;107052;1280;22575;-90
2023/11/03 09:00:36;;;;;;;;;;;;;;;14.85;76.82;93734.25;107275;1287;138684;-90
2023/11/03 09:03:05;;;;;;;2.10;1.50;;;;;;;14.85;76.61;93715.27;107290;1283;24219;-90
2023/11/03 09:05:33;;;;;;;1.30;1.20;;;;;;;14.87;77.22;93718.23;107340;1286;23245;-90
2023/11/03 09:08:03;;;;;;;1.30;1.00;;;;;;;14.89;77.45;93719.73;107943;1284;136593;-90
2023/11/03 09:10:32;;;;;;;1.40;1.30;;;;;;;14.88;76.81;93718.22;107725;1283;22644;-91
2023/11/03 09:13:02;;;;;;;2.00;1.20;;;;;;;14.88;76.48;93715.61;107435;1286;138462;-90
2023/11/03 09:15:29;;;;;;;1.50;1.00;;;;;;;14.89;75.97;93711.16;106935;1279;22605;-91
2023/11/03 09:17:57;;;;;;;1.20;1.10;;;;;;;14.90;75.44;93709.27;106885;1285;138559;-90
2023/11/03 09:20:24;;;;;;;1.70;1.20;;;;;;;14.90;75.66;93714.86;107059;1282;22553;-89
2023/11/03 09:22:54;;;;;;;1.50;0.90;;;;;;;14.91;75.28;93707.36;107296;1284;26044;-91
2023/11/03 09:25:42;;;;;;;1.50;1.10;;;;;;;14.90;75.90;93694.20;107067;1283;137973;-91
2023/11/03 09:28:13;;;;;;;1.50;0.90;;;;;;;14.90;75.90;93701.01;107206;1286;22552;-90
2023/11/03 09:30:54;;;;;;;1.30;1.10;;;;;;;14.90;76.07;93698.70;107342;1286;138231;-91
2023/11/03 09:33:27;;;;;;;1.60;1.20;;;;;;;14.93;75.97;93695.48;107729;1279;22597;-91
2023/11/03 09:36:03;;;;;;;2.30;1.10;;;;;;;14.94;75.48;93693.28;107594;1282;138790;-91
2023/11/03 09:38:31;;;;;;;1.50;1.10;;;;;;;14.96;75.54;93687.27;107666;1284;23348;-89
2023/11/03 09:41:07;;;;;;;1.20;0.90;;;;;;;14.96;76.79;93691.34;107627;1280;22572;-90
2023/11/03 09:43:35;;;;;;;1.80;1.10;;;;;;;14.95;76.77;93677.06;107188;1283;138126;-92
2023/11/03 09:46:05;;;;;;;1.20;1.10;;;;;;;14.93;76.45;93676.61;107395;1286;22614;-90
2023/11/03 09:48:32;;;;;;;1.60;1.20;;;;;;;14.90;76.16;93670.27;107229;1278;138132;-92
2023/11/03 09:51:01;;;;;;;1.70;1.20;;;;;;;14.87;76.26;93644.10;107806;1286;22590;-89
2023/11/03 09:53:29;;;;;;;1.10;1.00;;;;;;;14.86;76.21;93654.41;108092;1286;25458;-91
2023/11/03 09:55:56;;;;;;;24.30;8.60;;;;;;;14.88;76.45;93638.96;107551;1286;136785;-91
2023/11/03 09:58:23;;;;;;;3.20;1.80;;;;;;;14.89;76.31;93647.84;107868;1283;22655;-90
2023/11/03 10:00:50;;;;;;;2.00;1.30;;;;;;;14.91;76.12;93632.04;107197;1286;137969;-90
2023/11/03 10:03:17;;;;;;;3.00;1.70;;;;;;;14.94;76.10;93615.80;107246;1286;22574;-90
2023/11/03 10:05:44;;;;;;;13.80;5.00;;;;;;;14.95;76.22;93609.81;108304;1286;139027;-92
2023/11/03 10:08:13;;;;;;;10.60;3.90;;;;;;;14.97;76.09;93596.21;108844;1283;24303;-92
2023/11/03 10:11:10;;;;;;;2.20;1.30;;;;;;;15.01;75.99;93597.65;109081;1283;22497;-92
2023/11/03 10:13:40;;;;;;;3.30;2.20;;;;;;;15.05;76.01;93584.52;109037;1282;138489;-93
2023/11/03 10:16:22;;;;;;;2.20;1.40;;;;;;;15.08;75.81;93580.52;108721;1285;22571;-92
2023/11/03 10:18:49;;;;;;;4.20;2.80;;;;;;;15.09;75.94;93580.14;108673;1287;138049;-90
2023/11/03 10:21:18;;;;;;;3.20;1.80;;;;;;;15.09;76.22;93573.40;108432;1286;23537;-91
2023/11/03 10:23:47;;;;;;;6.70;3.90;;;;;;;15.12;76.43;93587.64;108623;1280;137000;-91
2023/11/03 10:26:14;;;;;;;3.30;1.30;;;;;;;15.15;76.26;93588.36;108270;1285;24165;-91
2023/11/03 10:28:47;;;;;;;6.00;3.10;;;;;;;15.17;76.53;93585.52;108324;1286;25345;-90
2023/11/03 10:31:14;;;;;;;2.10;1.40;;;;;;;15.20;76.34;93595.36;108322;1280;138326;-92
2023/11/03 10:33:41;;;;;;;2.90;1.80;;;;;;;15.25;76.54;93587.23;108572;1280;22551;-92
2023/11/03 10:36:09;;;;;;;1.80;1.10;;;;;;;15.31;75.89;93578.14;108846;1282;138127;-92
2023/11/03 10:38:38;;;;;;;2.10;1.60;;;;;;;15.38;76.61;93573.77;108876;1286;24045;-93
2023/11/03 10:41:07;;;;;;;8.50;6.40;;;;;;;15.42;76.55;93570.56;108671;1286;24006;-93
2023/11/03 10:43:56;;;;;;;1.80;1.40;;;;;;;15.43;76.52;93573.69;108757;1280;137955;-92
2023/11/03 10:46:54;;;;;;;2.00;1.30;;;;;;;15.42;76.06;93588.82;108982;1285;22544;-92
2023/11/03 10:49:36;;;;;;;1.70;1.50;;;;;;;15.40;76.62;93600.73;109197;1283;138860;-93
2023/11/03 10:55:32;;;;;;;2.40;1.30;;;;;;;15.33;78.97;93603.06;109563;1277;136732;-93
2023/11/03 11:02:30;;;;;;;;;;;;;;;;;;;;;
2023/11/03 11:05:38;;;;;;;3.20;2.00;;;;;;;14.98;81.26;93599.29;109351;1279;22574;-93
2023/11/03 11:08:41;;;;;;;1.80;1.50;;;;;;;14.87;82.51;93592.90;109715;1286;22565;-94
2023/11/03 11:11:55;;;;;;;12.60;6.30;;;;;;;14.80;83.37;93578.29;109721;1277;22552;-93
2023/11/03 11:18:01;;;;;;;7.40;3.50;;;;;;;14.55;85.14;93597.06;108995;1282;22583;-92
2023/11/03 11:21:39;;;;;;;14.90;8.30;;;;;;;14.42;86.20;93589.02;109014;1280;22661;-92
2023/11/03 11:35:13;;;;;;;;;;;;;;;;;;;;;
2023/11/03 11:43:35;;;;;;;2.40;1.80;;;;;;;13.95;90.71;93659.96;109681;1270;22441;31
2023/11/03 11:46:48;;;;;;;2.40;1.90;;;;;;;13.92;90.76;93665.20;108934;1280;22583;-92
2023/11/03 11:50:36;;;;;;;3.00;1.80;;;;;;;13.86;90.98;93665.66;108408;1289;138099;-91
2023/11/03 11:53:04;;;;;;;3.10;1.60;;;;;;;13.77;91.26;93647.98;108491;1283;23870;-90
2023/11/03 11:55:36;;;;;;;1.70;1.50;;;;;;;13.74;91.74;93626.97;108130;1283;139003;-92
2023/11/03 11:58:03;;;;;;;3.30;2.20;;;;;;;13.67;91.94;93611.82;107629;1286;24322;-90
2023/11/03 12:00:37;;;;;;;2.10;1.50;;;;;;;13.64;92.56;93604.35;107589;1289;138060;-91
2023/11/03 12:03:06;;;;;;;1.70;1.50;;;;;;;13.62;93.06;93608.65;107004;1283;22902;-88
2023/11/03 12:05:34;;;;;;;1.80;1.20;;;;;;;13.59;94.21;93604.17;106749;1281;22539;-90
2023/11/03 12:08:03;;;;;;;2.00;1.60;;;;;;;13.56;94.39;93599.27;106752;1283;138252;-89
2023/11/03 12:10:33;;;;;;;1.40;1.20;;;;;;;13.54;95.03;93605.56;106705;1282;24319;-89